createdAt,value
2018-01-20T00:00:28.532Z,27.90
2018-01-20T00:02:54.279Z,27.47
2018-01-20T00:05:20.300Z,28.57
2018-01-20T00:07:46.176Z,27.55
2018-01-20T00:10:20.218Z,27.30
2018-01-20T00:12:45.962Z,26.90
2018-01-20T00:15:11.957Z,27.03
2018-01-20T00:17:37.716Z,26.33
2018-01-20T00:20:03.885Z,23.57
2018-01-20T00:22:29.666Z,29.10
2018-01-20T00:25:01.415Z,25.13
2018-01-20T00:27:27.324Z,26.27
2018-01-20T00:29:53.073Z,26.80
2018-01-20T00:32:18.830Z,26.63
2018-01-20T00:34:44.587Z,26.33
2018-01-20T00:37:10.386Z,26.63
2018-01-20T00:39:36.144Z,26.90
2018-01-20T00:42:01.922Z,29.87
2018-01-20T00:44:27.678Z,29.60
2018-01-20T00:46:53.434Z,27.60
2018-01-20T00:49:19.215Z,27.37
2018-01-20T00:51:44.974Z,26.97
2018-01-20T00:54:10.718Z,29.33
2018-01-20T00:56:36.483Z,29.30
2018-01-20T00:59:02.346Z,29.20
2018-01-20T01:01:28.382Z,31.20
2018-01-20T01:03:54.130Z,30.98
2018-01-20T01:06:19.956Z,29.43
2018-01-20T01:08:45.660Z,28.37
2018-01-20T01:11:11.495Z,28.30
2018-01-20T01:13:37.548Z,28.43
2018-01-20T01:16:03.330Z,29.42
2018-01-20T01:18:29.079Z,29.73
2018-01-20T01:20:54.844Z,28.53
2018-01-20T01:23:20.582Z,30.57
2018-01-20T01:25:46.378Z,28.40
2018-01-20T01:28:12.128Z,29.77
2018-01-20T01:30:37.891Z,29.83
2018-01-20T01:33:03.625Z,30.93
2018-01-20T01:35:29.527Z,28.67
2018-01-20T01:37:55.286Z,28.73
2018-01-20T01:40:21.054Z,31.97
2018-01-20T01:42:46.802Z,29.47
2018-01-20T01:45:12.565Z,29.33
2018-01-20T01:47:38.326Z,27.60
2018-01-20T01:50:04.094Z,28.20
2018-01-20T01:52:30.114Z,30.97
2018-01-20T01:54:55.863Z,28.90
2018-01-20T01:57:21.693Z,31.10
2018-01-20T01:59:47.507Z,29.53
2018-01-20T02:02:13.275Z,29.00
2018-01-20T02:04:39.267Z,29.10
2018-01-20T02:07:05.154Z,29.65
2018-01-20T02:09:30.898Z,27.87
2018-01-20T02:11:56.660Z,29.93
2018-01-20T02:14:22.403Z,30.10
2018-01-20T02:16:48.159Z,28.27
2018-01-20T02:19:13.930Z,32.07
2018-01-20T02:21:39.694Z,28.27
2018-01-20T02:24:05.443Z,29.83
2018-01-20T02:26:31.627Z,29.20
2018-01-20T02:28:57.389Z,29.77
2018-01-20T02:31:23.131Z,30.63
2018-01-20T02:33:48.886Z,30.27
2018-01-20T02:36:14.655Z,31.13
2018-01-20T02:38:40.425Z,30.07
2018-01-20T02:41:06.171Z,28.07
2018-01-20T02:43:31.932Z,28.63
2018-01-20T02:45:57.691Z,30.30
2018-01-20T02:48:23.459Z,28.03
2018-01-20T02:50:49.203Z,31.83
2018-01-20T02:53:14.973Z,26.53
2018-01-20T02:55:40.732Z,28.77
2018-01-20T02:58:06.504Z,28.77
2018-01-20T03:00:32.264Z,29.37
2018-01-20T03:02:58.031Z,26.83
2018-01-20T03:05:23.802Z,29.47
2018-01-20T03:07:49.570Z,25.17
2018-01-20T03:10:15.326Z,23.10
2018-01-20T03:12:41.087Z,24.53
2018-01-20T03:15:06.855Z,25.30
2018-01-20T03:17:32.599Z,25.00
2018-01-20T03:19:58.358Z,24.77
2018-01-20T03:22:24.120Z,24.70
2018-01-20T03:24:49.874Z,23.90
2018-01-20T03:27:15.602Z,23.70
2018-01-20T03:29:41.355Z,24.13
2018-01-20T03:32:07.087Z,25.13
2018-01-20T03:34:32.846Z,22.80
2018-01-20T03:36:58.585Z,25.27
2018-01-20T03:39:24.342Z,24.63
2018-01-20T03:41:50.089Z,26.43
2018-01-20T03:44:15.839Z,27.93
2018-01-20T03:46:41.582Z,25.90
2018-01-20T03:49:07.322Z,25.80
2018-01-20T03:51:33.078Z,27.87
2018-01-20T03:53:58.838Z,27.17
2018-01-20T03:56:24.599Z,27.97
2018-01-20T03:58:50.355Z,29.00
2018-01-20T04:01:16.126Z,30.07
2018-01-20T04:03:41.858Z,29.30
2018-01-20T04:06:07.597Z,29.13
2018-01-20T04:08:33.337Z,32.10
2018-01-20T04:10:59.088Z,30.57
2018-01-20T04:13:24.819Z,32.23
2018-01-20T04:15:50.569Z,31.40
2018-01-20T04:18:16.312Z,32.27
2018-01-20T04:20:42.054Z,31.13
2018-01-20T04:23:07.868Z,31.13
2018-01-20T04:25:33.603Z,30.57
2018-01-20T04:27:59.343Z,31.63
2018-01-20T04:30:25.079Z,34.17
2018-01-20T04:32:50.836Z,35.67
2018-01-20T04:35:16.578Z,33.77
2018-01-20T04:37:42.325Z,34.77
2018-01-20T04:40:08.066Z,33.03
2018-01-20T04:42:33.814Z,35.37
2018-01-20T04:44:59.558Z,35.17
2018-01-20T04:47:25.310Z,33.90
2018-01-20T04:49:51.059Z,33.30
2018-01-20T04:52:16.820Z,35.40
2018-01-20T04:54:42.567Z,32.70
2018-01-20T04:57:08.323Z,34.10
2018-01-20T04:59:34.070Z,32.67
2018-01-20T05:01:59.820Z,35.83
2018-01-20T05:04:25.560Z,33.70
2018-01-20T05:06:51.315Z,34.97
2018-01-20T05:09:17.043Z,34.60
2018-01-20T05:11:42.793Z,36.73
2018-01-20T05:14:08.542Z,35.27
2018-01-20T05:16:34.302Z,36.83
2018-01-20T05:19:00.042Z,40.80
2018-01-20T05:21:25.774Z,35.27
2018-01-20T05:23:51.536Z,36.50
2018-01-20T05:26:17.276Z,37.00
2018-01-20T05:28:43.027Z,40.60
2018-01-20T05:31:08.814Z,42.07
2018-01-20T05:33:34.530Z,43.10
2018-01-20T05:36:00.258Z,44.67
2018-01-20T05:40:58.519Z,42.92
2018-01-20T05:43:24.263Z,44.23
2018-01-20T05:45:50.003Z,42.50
2018-01-20T05:48:15.753Z,40.10
2018-01-20T05:50:41.514Z,37.47
2018-01-20T05:53:07.269Z,40.43
2018-01-20T05:55:33.005Z,37.30
2018-01-20T05:57:58.735Z,38.07
2018-01-20T06:00:24.498Z,37.60
2018-01-20T06:02:50.235Z,35.90
2018-01-20T06:05:15.983Z,33.67
2018-01-20T06:07:41.730Z,31.53
2018-01-20T06:10:07.479Z,32.67
2018-01-20T06:12:33.217Z,30.90
2018-01-20T06:14:58.950Z,29.43
2018-01-20T06:17:24.678Z,29.50
2018-01-20T06:19:50.417Z,29.77
2018-01-20T06:22:16.190Z,29.40
2018-01-20T06:24:41.951Z,30.57
2018-01-20T06:27:07.697Z,33.43
2018-01-20T06:29:33.446Z,34.37
2018-01-20T06:31:59.180Z,33.87
2018-01-20T06:34:24.930Z,30.00
2018-01-20T06:36:50.669Z,27.87
2018-01-20T06:39:16.394Z,33.43
2018-01-20T06:41:42.134Z,31.13
2018-01-20T06:44:07.862Z,29.53
2018-01-20T06:46:33.602Z,34.00
2018-01-20T06:48:59.347Z,29.90
2018-01-20T06:51:25.089Z,27.10
2018-01-20T06:53:50.829Z,26.10
2018-01-20T06:56:16.585Z,25.83
2018-01-20T06:58:42.334Z,25.47
2018-01-20T07:01:08.090Z,25.23
2018-01-20T07:03:33.839Z,26.13
2018-01-20T07:05:59.606Z,26.30
2018-01-20T07:08:25.347Z,26.80
2018-01-20T07:10:51.090Z,26.77
2018-01-20T07:13:16.836Z,25.83
2018-01-20T07:15:42.604Z,27.17
2018-01-20T07:18:08.347Z,27.73
2018-01-20T07:20:34.087Z,27.70
2018-01-20T07:22:59.838Z,25.43
2018-01-20T07:25:25.584Z,26.93
2018-01-20T07:27:51.327Z,24.77
2018-01-20T07:30:17.069Z,24.27
2018-01-20T07:32:42.815Z,23.53
2018-01-20T07:35:08.556Z,24.10
2018-01-20T07:37:34.291Z,23.00
2018-01-20T07:40:00.038Z,24.03
2018-01-20T07:42:25.816Z,24.40
2018-01-20T07:44:51.554Z,24.17
2018-01-20T07:47:17.304Z,26.27
2018-01-20T07:49:43.051Z,26.93
2018-01-20T07:52:08.803Z,25.43
2018-01-20T07:54:34.555Z,25.90
2018-01-20T07:57:00.313Z,25.37
2018-01-20T07:59:26.063Z,25.63
2018-01-20T08:01:51.807Z,26.67
2018-01-20T08:04:17.561Z,26.87
2018-01-20T08:06:43.315Z,28.13
2018-01-20T08:09:09.066Z,28.00
2018-01-20T08:11:34.799Z,28.47
2018-01-20T08:14:00.560Z,30.27
2018-01-20T08:16:26.401Z,26.97
2018-01-20T08:18:52.167Z,27.27
2018-01-20T08:21:17.907Z,27.60
2018-01-20T08:23:43.642Z,26.80
2018-01-20T08:26:09.370Z,27.70
2018-01-20T08:28:35.122Z,27.73
2018-01-20T08:31:00.878Z,27.17
2018-01-20T08:33:26.626Z,27.93
2018-01-20T08:35:52.366Z,27.20
2018-01-20T08:38:18.110Z,28.03
2018-01-20T08:40:43.844Z,27.80
2018-01-20T08:43:09.587Z,26.17
2018-01-20T08:45:35.322Z,28.93
2018-01-20T08:48:01.071Z,27.10
2018-01-20T08:50:26.827Z,27.13
2018-01-20T08:52:52.574Z,26.57
2018-01-20T08:55:18.322Z,27.60
2018-01-20T08:57:44.071Z,27.30
2018-01-20T09:00:09.834Z,27.33
2018-01-20T09:02:35.568Z,28.20
2018-01-20T09:05:01.315Z,28.53
2018-01-20T09:07:27.061Z,27.23
2018-01-20T09:09:52.811Z,28.37
2018-01-20T09:12:18.554Z,29.80
2018-01-20T09:14:44.298Z,30.20
2018-01-20T09:17:10.050Z,29.43
2018-01-20T09:19:35.790Z,28.60
2018-01-20T09:22:01.522Z,30.07
2018-01-20T09:24:27.262Z,29.00
2018-01-20T09:26:53.002Z,29.77
2018-01-20T09:29:18.751Z,30.73
2018-01-20T09:31:44.504Z,31.77
2018-01-20T09:34:10.251Z,32.80
2018-01-20T09:36:35.989Z,31.90
2018-01-20T09:39:01.738Z,29.03
2018-01-20T09:41:27.489Z,29.33
2018-01-20T09:43:53.222Z,30.00
2018-01-20T09:46:18.969Z,28.53
2018-01-20T09:48:44.710Z,31.90
2018-01-20T09:51:10.459Z,29.90
2018-01-20T09:53:36.210Z,28.93
2018-01-20T09:56:01.955Z,28.50
2018-01-20T09:58:27.695Z,30.97
2018-01-20T10:00:53.446Z,31.30
2018-01-20T10:03:19.187Z,32.97
2018-01-20T10:05:44.942Z,31.97
2018-01-20T10:08:10.678Z,33.07
2018-01-20T10:10:36.414Z,32.50
2018-01-20T10:13:02.150Z,32.60
2018-01-20T10:15:27.903Z,33.63
2018-01-20T10:17:53.639Z,33.03
2018-01-20T10:20:19.370Z,30.70
2018-01-20T10:22:45.127Z,32.57
2018-01-20T10:25:10.900Z,31.10
2018-01-20T10:27:36.606Z,31.00
2018-01-20T10:30:02.407Z,30.07
2018-01-20T10:32:28.183Z,30.50
2018-01-20T10:34:53.926Z,29.97
2018-01-20T10:37:19.768Z,28.47
2018-01-20T10:39:45.531Z,29.97
2018-01-20T10:42:11.299Z,29.50
2018-01-20T10:44:37.037Z,30.27
2018-01-20T10:47:02.778Z,29.40
2018-01-20T10:49:28.511Z,29.03
2018-01-20T10:51:54.262Z,26.80
2018-01-20T10:54:20.023Z,27.83
2018-01-20T10:56:45.778Z,25.57
2018-01-20T10:59:11.522Z,24.47
2018-01-20T11:01:37.298Z,24.33
2018-01-20T11:04:03.035Z,25.07
2018-01-20T11:06:28.774Z,22.37
2018-01-20T11:08:54.518Z,24.07
2018-01-20T11:11:20.254Z,23.43
2018-01-20T11:13:46.002Z,24.77
2018-01-20T11:16:11.746Z,28.57
2018-01-20T11:18:37.499Z,24.27
2018-01-20T11:21:10.075Z,24.67
2018-01-20T11:23:35.814Z,25.92
2018-01-20T11:26:01.546Z,24.87
2018-01-20T11:28:27.301Z,26.00
2018-01-20T11:30:53.046Z,26.37
2018-01-20T11:33:18.805Z,26.70
2018-01-20T11:35:44.563Z,27.73
2018-01-20T11:38:10.346Z,29.20
2018-01-20T11:40:36.082Z,29.83
2018-01-20T11:43:01.823Z,31.60
2018-01-20T11:45:27.566Z,30.40
2018-01-20T11:47:53.302Z,32.40
2018-01-20T11:50:19.159Z,33.43
2018-01-20T11:52:44.977Z,32.07
2018-01-20T11:55:10.726Z,30.97
2018-01-20T11:57:36.503Z,32.60
2018-01-20T12:00:02.345Z,32.87
2018-01-20T12:02:28.098Z,34.10
2018-01-20T12:04:53.851Z,33.93
2018-01-20T12:07:19.601Z,34.83
2018-01-20T12:09:47.461Z,33.57
2018-01-20T12:12:13.206Z,33.08
2018-01-20T12:14:38.968Z,33.30
2018-01-20T12:17:04.798Z,34.73
2018-01-20T12:19:30.529Z,35.43
2018-01-20T12:21:56.317Z,33.37
2018-01-20T12:24:22.074Z,34.23
2018-01-20T12:26:47.826Z,33.03
2018-01-20T12:29:13.587Z,32.40
2018-01-20T12:31:39.511Z,32.87
2018-01-20T12:34:05.455Z,31.03
2018-01-20T12:36:31.698Z,32.77
2018-01-20T12:38:57.450Z,31.25
2018-01-20T12:41:23.219Z,33.10
2018-01-20T12:43:48.978Z,32.80
2018-01-20T12:46:14.742Z,33.27
2018-01-20T12:48:40.661Z,32.53
2018-01-20T12:51:06.414Z,32.77
2018-01-20T12:53:32.458Z,31.10
2018-01-20T12:55:58.223Z,30.83
2018-01-20T12:58:23.962Z,31.37
2018-01-20T13:00:49.715Z,31.20
2018-01-20T13:03:15.463Z,30.70
2018-01-20T13:05:41.215Z,30.83
2018-01-20T13:08:06.986Z,30.67
2018-01-20T13:10:32.730Z,31.00
2018-01-20T13:12:58.544Z,30.13
2018-01-20T13:15:24.330Z,29.50
2018-01-20T13:17:50.151Z,30.87
2018-01-20T13:20:15.898Z,31.50
2018-01-20T13:22:41.655Z,29.93
2018-01-20T13:25:07.406Z,32.17
2018-01-20T13:27:33.160Z,32.40
2018-01-20T13:29:58.906Z,31.47
2018-01-20T13:32:24.658Z,34.00
2018-01-20T13:34:50.402Z,30.63
2018-01-20T13:37:16.154Z,32.83
2018-01-20T13:39:42.007Z,32.60
2018-01-20T13:42:07.781Z,32.03
2018-01-20T13:44:33.515Z,31.83
2018-01-20T13:46:59.399Z,30.63
2018-01-20T13:49:25.200Z,31.57
2018-01-20T13:51:50.946Z,33.00
2018-01-20T13:54:16.700Z,33.10
2018-01-20T13:56:42.450Z,32.33
2018-01-20T13:59:08.235Z,33.10
2018-01-20T14:01:33.986Z,31.90
2018-01-20T14:03:59.762Z,32.53
2018-01-20T14:06:25.507Z,33.57
2018-01-20T14:08:51.288Z,32.13
2018-01-20T14:11:17.015Z,31.00
2018-01-20T14:13:42.766Z,31.63
2018-01-20T14:16:08.521Z,30.53
2018-01-20T14:18:34.276Z,31.23
2018-01-20T14:21:00.021Z,30.20
2018-01-20T14:23:25.758Z,30.50
2018-01-20T14:25:51.487Z,30.97
2018-01-20T14:28:17.231Z,31.13
2018-01-20T14:30:42.971Z,32.67
2018-01-20T14:33:08.714Z,31.47
2018-01-20T14:35:34.484Z,32.23
2018-01-20T14:38:00.234Z,30.40
2018-01-20T14:40:25.973Z,31.53
2018-01-20T14:42:51.701Z,31.07
2018-01-20T14:45:18.333Z,30.83
2018-01-20T14:47:44.157Z,32.70
2018-01-20T14:50:09.903Z,31.37
2018-01-20T14:52:35.661Z,30.27
2018-01-20T14:55:01.414Z,31.50
2018-01-20T14:57:27.155Z,31.87
2018-01-20T14:59:52.911Z,34.03
2018-01-20T15:02:20.062Z,34.37
2018-01-20T15:04:45.903Z,32.33
2018-01-20T15:07:11.635Z,34.83
2018-01-20T15:09:37.386Z,35.40
2018-01-20T15:12:03.131Z,35.13
2018-01-20T15:14:28.867Z,33.23
2018-01-20T15:16:54.598Z,34.07
2018-01-20T15:19:20.347Z,33.70
2018-01-20T15:21:46.086Z,39.17
2018-01-20T15:24:11.810Z,35.53
2018-01-20T15:26:37.552Z,35.07
2018-01-20T15:29:03.278Z,37.30
2018-01-20T15:31:29.019Z,33.97
2018-01-20T15:33:54.742Z,35.77
2018-01-20T15:36:20.495Z,34.93
2018-01-20T15:38:46.234Z,34.13
2018-01-20T15:41:11.978Z,32.97
2018-01-20T15:43:37.703Z,35.93
2018-01-20T15:46:03.483Z,34.70
2018-01-20T15:48:29.225Z,36.50
2018-01-20T15:50:54.960Z,35.10
2018-01-20T15:53:20.714Z,35.10
2018-01-20T15:55:46.462Z,35.97
2018-01-20T15:58:12.243Z,36.03
2018-01-20T16:00:37.982Z,33.57
2018-01-20T16:03:03.731Z,34.50
2018-01-20T16:05:29.484Z,34.43
2018-01-20T16:07:55.243Z,36.37
2018-01-20T16:10:21.006Z,34.80
2018-01-20T16:12:46.774Z,34.57
2018-01-20T16:15:12.522Z,35.60
2018-01-20T16:17:38.274Z,35.03
2018-01-20T16:20:04.016Z,35.17
2018-01-20T16:22:29.758Z,34.03
2018-01-20T16:24:55.486Z,33.60
2018-01-20T16:27:21.256Z,34.57
2018-01-20T16:29:46.997Z,35.30
2018-01-20T16:32:12.770Z,35.80
2018-01-20T16:34:38.520Z,35.43
2018-01-20T16:37:04.268Z,35.77
2018-01-20T16:39:30.029Z,33.20
2018-01-20T16:41:55.770Z,34.10
2018-01-20T16:44:21.507Z,33.53
2018-01-20T16:46:47.251Z,32.90
2018-01-20T16:49:12.993Z,35.10
2018-01-20T16:51:38.720Z,34.23
2018-01-20T16:54:04.470Z,34.40
2018-01-20T16:56:30.375Z,35.57
2018-01-20T16:58:56.123Z,36.50
2018-01-20T17:01:21.867Z,38.90
2018-01-20T17:03:47.607Z,38.07
2018-01-20T17:06:13.338Z,39.57
2018-01-20T17:08:39.097Z,38.67
2018-01-20T17:11:04.846Z,37.97
2018-01-20T17:13:30.591Z,37.07
2018-01-20T17:15:56.343Z,36.87
2018-01-20T17:18:22.101Z,36.90
2018-01-20T17:20:47.862Z,37.40
2018-01-20T17:23:13.668Z,37.30
2018-01-20T17:25:39.426Z,38.60
2018-01-20T17:28:05.179Z,41.20
2018-01-20T17:30:30.932Z,41.83
2018-01-20T17:32:56.676Z,40.00
2018-01-20T17:35:22.417Z,38.63
2018-01-20T17:37:48.150Z,40.83
2018-01-20T17:40:13.907Z,40.40
2018-01-20T17:42:39.634Z,35.77
2018-01-20T17:45:05.381Z,36.73
2018-01-20T17:47:31.138Z,36.37
2018-01-20T17:49:56.902Z,37.07
2018-01-20T17:52:22.648Z,36.47
2018-01-20T17:54:48.419Z,36.40
2018-01-20T17:57:14.146Z,36.23
2018-01-20T17:59:39.898Z,37.73
2018-01-20T18:02:05.670Z,36.83
2018-01-20T18:04:31.418Z,36.10
2018-01-20T18:06:57.166Z,37.53
2018-01-20T18:09:22.916Z,37.90
2018-01-20T18:11:48.678Z,36.23
2018-01-20T18:14:14.434Z,40.60
2018-01-20T18:16:40.194Z,40.77
2018-01-20T18:19:05.939Z,48.10
2018-01-20T18:21:31.696Z,41.67
2018-01-20T18:23:57.486Z,39.87
2018-01-20T18:26:23.263Z,37.67
2018-01-20T18:28:49.007Z,37.07
2018-01-20T18:31:14.758Z,40.67
2018-01-20T18:33:40.490Z,38.20
2018-01-20T18:36:06.244Z,39.93
2018-01-20T18:38:31.974Z,40.50
2018-01-20T18:40:57.731Z,42.07
2018-01-20T18:43:23.483Z,39.43
2018-01-20T18:45:49.239Z,38.57
2018-01-20T18:48:14.980Z,38.17
2018-01-20T18:50:40.714Z,39.77
2018-01-20T18:53:06.483Z,39.60
2018-01-20T18:55:32.231Z,38.80
2018-01-20T18:57:57.982Z,41.23
2018-01-20T19:00:23.721Z,39.13
2018-01-20T19:02:49.482Z,38.20
2018-01-20T19:05:15.227Z,39.03
2018-01-20T19:07:40.981Z,41.97
2018-01-20T19:10:06.762Z,44.47
2018-01-20T19:12:32.511Z,44.23
2018-01-20T19:14:58.262Z,41.93
2018-01-20T19:17:24.021Z,40.17
2018-01-20T19:19:49.750Z,42.03
2018-01-20T19:22:15.486Z,39.50
2018-01-20T19:24:41.214Z,40.77
2018-01-20T19:27:06.960Z,51.97
2018-01-20T19:29:32.696Z,49.33
2018-01-20T19:31:58.431Z,42.63
2018-01-20T19:34:24.195Z,42.60
2018-01-20T19:36:49.938Z,43.93
2018-01-20T19:39:15.680Z,43.07
2018-01-20T19:41:41.415Z,43.33
2018-01-20T19:44:07.154Z,41.33
2018-01-20T19:46:32.887Z,41.23
2018-01-20T19:48:58.653Z,41.10
2018-01-20T19:51:24.386Z,41.17
2018-01-20T19:53:50.142Z,39.33
2018-01-20T19:56:15.879Z,40.13
2018-01-20T19:58:41.630Z,39.17
2018-01-20T20:01:07.384Z,39.93
2018-01-20T20:03:33.163Z,41.37
2018-01-20T20:05:58.910Z,40.30
2018-01-20T20:08:24.662Z,40.43
2018-01-20T20:10:50.401Z,38.97
2018-01-20T20:13:16.135Z,40.17
2018-01-20T20:15:41.892Z,39.20
2018-01-20T20:18:07.687Z,39.90
2018-01-20T20:20:33.414Z,41.97
2018-01-20T20:22:59.167Z,41.57
2018-01-20T20:25:24.921Z,40.70
2018-01-20T20:27:50.658Z,40.13
2018-01-20T20:30:17.203Z,48.38
2018-01-20T20:32:42.948Z,43.20
2018-01-20T20:35:08.700Z,43.27
2018-01-20T20:37:34.444Z,39.87
2018-01-20T20:40:00.208Z,38.53
2018-01-20T20:42:25.973Z,40.27
2018-01-20T20:44:51.735Z,43.97
2018-01-20T20:47:17.483Z,42.77
2018-01-20T20:49:43.231Z,42.33
2018-01-20T20:52:08.995Z,42.57
2018-01-20T20:54:34.789Z,43.90
2018-01-20T20:57:00.540Z,42.93
2018-01-20T20:59:26.350Z,46.13
2018-01-20T21:01:52.099Z,45.97
2018-01-20T21:04:17.850Z,44.33
2018-01-20T21:06:43.610Z,44.67
2018-01-20T21:09:09.343Z,43.00
2018-01-20T21:11:35.087Z,42.77
2018-01-20T21:14:00.825Z,41.93
2018-01-20T21:16:26.575Z,43.13
2018-01-20T21:18:52.311Z,44.10
2018-01-20T21:21:18.066Z,40.83
2018-01-20T21:23:43.798Z,42.47
2018-01-20T21:26:09.546Z,42.63
2018-01-20T21:28:35.286Z,42.07
2018-01-20T21:31:01.027Z,41.97
2018-01-20T21:33:26.770Z,42.57
2018-01-20T21:35:52.514Z,43.60
2018-01-20T21:38:18.250Z,42.10
2018-01-20T21:40:43.994Z,43.17
2018-01-20T21:43:09.741Z,43.03
2018-01-20T21:45:35.475Z,44.10
2018-01-20T21:48:01.259Z,42.80
2018-01-20T21:50:27.034Z,42.30
2018-01-20T21:52:52.778Z,41.10
2018-01-20T21:55:18.531Z,43.53
2018-01-20T21:57:44.306Z,44.10
2018-01-20T22:00:10.059Z,42.90
2018-01-20T22:02:35.987Z,41.03
2018-01-20T22:05:01.754Z,40.60
2018-01-20T22:07:27.506Z,40.63
2018-01-20T22:09:53.255Z,41.17
2018-01-20T22:12:19.018Z,43.10
2018-01-20T22:14:44.767Z,42.77
2018-01-20T22:17:10.522Z,41.70
2018-01-20T22:19:36.271Z,41.03
2018-01-20T22:22:02.028Z,40.50
2018-01-20T22:24:27.758Z,41.40
2018-01-20T22:26:53.503Z,40.47
2018-01-20T22:29:19.258Z,40.53
2018-01-20T22:31:45.004Z,40.20
2018-01-20T22:34:11.570Z,41.07
2018-01-20T22:36:37.299Z,41.17
2018-01-20T22:39:03.050Z,41.70
2018-01-20T22:41:28.793Z,40.03
2018-01-20T22:46:27.154Z,44.65
2018-01-20T22:48:52.904Z,41.90
2018-01-20T22:51:18.643Z,41.97
2018-01-20T22:53:44.397Z,41.17
2018-01-20T22:56:10.154Z,39.97
2018-01-20T22:58:35.915Z,39.37
2018-01-20T23:01:07.871Z,39.93
2018-01-20T23:03:33.631Z,39.97
2018-01-20T23:05:59.380Z,38.93
2018-01-20T23:08:25.142Z,38.30
2018-01-20T23:10:50.891Z,38.03
2018-01-20T23:13:16.650Z,40.53
2018-01-20T23:15:42.393Z,38.80
2018-01-20T23:18:08.143Z,41.27
2018-01-20T23:20:33.896Z,41.43
2018-01-20T23:22:59.651Z,43.00
2018-01-20T23:25:25.406Z,42.43
2018-01-20T23:27:51.162Z,42.37
2018-01-20T23:30:16.941Z,44.63
2018-01-20T23:32:42.690Z,42.23
2018-01-20T23:35:08.444Z,42.23
2018-01-20T23:37:34.207Z,41.70
2018-01-20T23:39:59.966Z,42.47
2018-01-20T23:42:25.697Z,39.83
2018-01-20T23:44:51.459Z,41.33
2018-01-20T23:47:17.202Z,42.00
2018-01-20T23:49:42.947Z,41.73
2018-01-20T23:52:08.694Z,45.43
2018-01-20T23:54:34.441Z,42.23
2018-01-20T23:57:07.325Z,41.53
2018-01-20T23:59:33.111Z,40.10
